Terminal Aerodrome Forecast
Issued by NWS Quad Cities IA IL

Home | Current Version | Previous Version | Text Only | Print | Product List | Glossary On
Versions: 1 2 3 4 5 6 7 8 9 10 11 12 13 14 15 16 17 18 19 20 21 22 23 24 25 26 27 28 29 30 31 32
000
FTUS43 KDVN 211905 AAA
TAFDBQ
TAF AMD
KDBQ 211905Z 2119/2218 20006KT 1SM BR OVC002
     FM212000 22008KT 2SM BR OVC004
     FM212200 22007KT 3SM BR OVC006
     FM220300 19004KT 2SM BR OVC005
     FM220700 VRB02KT 1/2SM FG OVC003
     FM221600 35008KT 2SM BR OVC006=

USA.gov is the U.S. government's official web portal to all federal, state and local government web resources and services.